Flight Track Log - Related Links

Times and Time Zones

All times are in EDT time to prevent confusion due to time zone crossing. See the FFT919 flight status page for this flight to view local times or setup timezone preferences in your user account.

Time Position Orientation Groundspeed Altitude Reporting Facility
EDT Latitude Longitude Course Direction KTS MPH feet Rate Location/Type
Mon 06:36:59 AM 40.2667 -74.8333 217° Southwest 121 139 800  Level Philadelphia TRACON
Mon 06:38:05 AM 40.2167 -74.8833 217° Southwest 210 242 2,800 2,190 Climbing Philadelphia TRACON
Mon 06:39:05 AM 40.1833 -74.9500 237° Southwest 277 319 5,400 2,100 Climbing Philadelphia TRACON
Mon 06:40:05 AM 40.1167 -75.0167 217° Southwest 281 323 7,000 800 Climbing Philadelphia TRACON
Mon 06:41:05 AM 40.0500 -75.0500 201° Southwest 281 323 7,000 1,350 Level Philadelphia TRACON
Mon 06:42:05 AM 39.9833 -75.1000 210° Southwest 285 328 9,700 1,221 Climbing Philadelphia TRACON
Mon 06:43:57 AM 39.8525 -75.1753 204° Southwest 300 345 10,500 767 Climbing Washington Center
Mon 06:44:57 AM 39.7650 -75.2272 205° Southwest 320 368 11,900 694 Climbing Washington Center
Mon 06:45:58 AM 39.6672 -75.2842 204° Southwest 343 395 11,900  Level Washington Center
Mon 06:46:59 AM 39.5736 -75.3142 194° South 343 395 11,900  Level Washington Center
Mon 06:47:59 AM 39.4778 -75.3333 189° South 348 400 11,900 814 Level Washington Center
Mon 06:48:57 AM 39.3778 -75.3500 187° South 353 406 13,500 2,000 Climbing Washington Center
Mon 06:49:59 AM 39.2778 -75.3692 188° South 363 418 15,900 1,700 Climbing Washington Center
Mon 06:50:57 AM 39.1717 -75.3856 187° South 374 430 16,900 1,261 Climbing Washington Center
Mon 06:51:58 AM 39.0653 -75.4017 187° South 386 444 18,400 1,765 Climbing Washington Center
Mon 06:52:56 AM 38.9547 -75.4208 188° South 391 450 20,400 1,966 Climbing Washington Center
Mon 06:53:57 AM 38.8381 -75.4372 186° South 406 467 22,300 1,854 Climbing Washington Center
Mon 06:54:59 AM 38.7214 -75.4533 186° South 418 481 24,200 2,100 Climbing Washington Center
Mon 06:55:57 AM 38.6006 -75.4722 187° South 431 496 26,500 1,916 Climbing Washington Center
Mon 06:56:58 AM 38.4881 -75.5014 191° South 431 496 28,000 744 Climbing Washington Center
Mon 06:57:58 AM 38.3900 -75.5836 213° Southwest 416 479 28,000  Level Washington Center
Mon 06:58:59 AM 38.2983 -75.6500 210° Southwest 416 479 28,000  Level Washington Center
Mon 06:59:59 AM 38.1981 -75.7344 214° Southwest 423 487 28,000  Level Washington Center
Mon 07:00:56 AM 38.1019 -75.8161 214° Southwest 429 494 28,000  Level Washington Center
Mon 07:01:57 AM 38.0017 -75.8947 212° Southwest 429 494 28,000  Level Washington Center
Mon 07:02:58 AM 37.9056 -75.9761 214° Southwest 429 494 28,000  Level Washington Center
Mon 07:03:59 AM 37.7969 -76.0647 213° Southwest 429 494 28,000  Level Washington Center
Mon 07:04:59 AM 37.7111 -76.1406 215° Southwest 429 494 28,000  Level Washington Center
Mon 07:05:58 AM 37.5958 -76.2236 210° Southwest 429 494 28,000  Level Washington Center
Mon 07:06:58 AM 37.4994 -76.3039 213° Southwest 434 499 28,000 -298 Level Washington Center
Mon 07:07:59 AM 37.4008 -76.3839 213° Southwest 434 499 27,400 -1,412 Descending Washington Center
Mon 07:08:57 AM 37.3067 -76.4561 211° Southwest 423 487 25,200 -1,800 Descending Washington Center
Mon 07:09:59 AM 37.2203 -76.5542 222° Southwest 423 487 23,800 -958 Descending Washington Center
Mon 07:10:56 AM 37.1633 -76.6447 232° Southwest 418 481 23,300 -407 Descending Washington Center
Mon 07:11:57 AM 37.0850 -76.7661 231° Southwest 412 474 23,000 -148 Descending Washington Center
Mon 07:12:58 AM 37.0150 -76.8769 232° Southwest 412 474 23,000  Level Washington Center
Mon 07:13:59 AM 36.9450 -76.9875 232° Southwest 412 474 23,000 -50 Level Washington Center
Mon 07:14:57 AM 36.8706 -77.0978 230° Southwest 412 474 22,900 -303 Descending Washington Center
Mon 07:15:58 AM 36.7983 -77.2078 231° Southwest 412 474 22,400 -496 Descending Washington Center
Mon 07:16:58 AM 36.7300 -77.3153 232° Southwest 412 474 21,900 -496 Descending Washington Center
Mon 07:17:59 AM 36.6594 -77.4225 231° Southwest 412 474 21,400 -504 Descending Washington Center
Mon 07:18:57 AM 36.5931 -77.5297 232° Southwest 412 474 20,900 -504 Descending Washington Center
Mon 07:19:58 AM 36.5161 -77.6439 230° Southwest 412 474 20,400 -738 Descending Washington Center
Mon 07:20:59 AM 36.4497 -77.7456 231° Southwest 401 461 19,400 -2,000 Descending Washington Center
Mon 07:21:58 AM 36.3831 -77.8519 232° Southwest 401 461 16,400 -2,700 Descending Washington Center
Mon 07:22:59 AM 36.3100 -77.9608 230° Southwest 401 461 14,000 -1,576 Descending Washington Center
Mon 07:23:56 AM 36.2456 -78.0567 230° Southwest 393 452 13,300 -958 Descending Washington Center
Mon 07:24:58 AM 36.1853 -78.1475 231° Southwest 362 417 12,100 -634 Descending Washington Center
Mon 07:25:59 AM 36.1372 -78.2358 236° Southwest 349 402 12,000 -151 Descending Washington Center
Mon 07:26:57 AM 36.0847 -78.3447 239° Southwest 343 395 11,800 -756 Descending Washington Center
Mon 07:27:58 AM 36.0475 -78.4256 240° Southwest 325 374 10,500 -1,488 Descending Washington Center
Mon 07:28:58 AM 36.0014 -78.5214 239° Southwest 306 352 8,800 -1,271 Descending Washington Center
Mon 07:29:56 AM 35.9436 -78.5808 220° Southwest 286 329 8,000 -400 Descending Washington Center
Mon 07:30:58 AM 35.8814 -78.6478 221° Southwest 290 334 8,000 -195 Level Washington Center
Mon 07:31:59 AM 35.8192 -78.7119 220° Southwest 290 334 7,600 -1,169 Descending Washington Center
Mon 07:32:56 AM 35.7672 -78.7764 225° Southwest 282 325 5,700 -1,587 Descending Washington Center
Mon 07:34:00 AM 35.7381 -78.8572 246° West 245 282 4,400 -1,191 Descending Washington Center
Mon 07:35:07 AM 35.7892 -78.9003 326° Northwest 228 262 3,100 -1,359 Descending Washington Center
Mon 07:36:08 AM 35.8319 -78.8533 42° Northeast 212 244 1,500 -1,210 Descending Washington Center
Mon 07:37:06 AM 35.8644 -78.8164 43° Northeast 136 157 700 -828 Descending Washington Center
Mon 07:39:00 AM 35.8667 -78.7833 349° North  Level FlightAware Approximate
Mon 07:46:00 AM 35.8776 -78.7875 349° North  Level Estimated

Login

Don't have an account? Register now (free) for customized features, flight alerts, and more!